sensor_id;sensor_type;location;lat;lon;timestamp;pressure;altitude;pressure_sealevel;temperature;humidity
12722;BME280;6425;50.316;8.114;2023-03-26T00:00:00;983;;;7.3;82.1
12722;BME280;6425;50.316;8.114;2023-03-26T00:03:00;983;;;7.2;82.9
12722;BME280;6425;50.316;8.114;2023-03-26T00:06:00;983;;;7.2;83
12722;BME280;6425;50.316;8.114;2023-03-26T00:09:00;983;;;7;83.9
12722;BME280;6425;50.316;8.114;2023-03-26T00:12:00;983;;;7;84.3
12722;BME280;6425;50.316;8.114;2023-03-26T00:15:00;983;;;7;84.2
12722;BME280;6425;50.316;8.114;2023-03-26T00:18:00;983;;;7.1;83.9
12722;BME280;6425;50.316;8.114;2023-03-26T00:21:00;983;;;7.1;83.6
12722;BME280;6425;50.316;8.114;2023-03-26T00:24:00;983;;;7;83.6
12722;BME280;6425;50.316;8.114;2023-03-26T00:27:00;983;;;7;83.7
12722;BME280;6425;50.316;8.114;2023-03-26T00:30:00;983;;;7;83.5
12722;BME280;6425;50.316;8.114;2023-03-26T00:33:00;983;;;6.9;84
12722;BME280;6425;50.316;8.114;2023-03-26T00:36:00;983;;;7;84.6
12722;BME280;6425;50.316;8.114;2023-03-26T00:39:00;983;;;6.9;84.7
12722;BME280;6425;50.316;8.114;2023-03-26T00:42:00;983;;;6.7;85.3
12722;BME280;6425;50.316;8.114;2023-03-26T00:45:00;983;;;6.7;85.8
12722;BME280;6425;50.316;8.114;2023-03-26T00:48:00;983;;;6.7;86.1
12722;BME280;6425;50.316;8.114;2023-03-26T00:51:00;983;;;6.8;86.2
12722;BME280;6425;50.316;8.114;2023-03-26T00:54:00;983;;;6.8;86.2
12722;BME280;6425;50.316;8.114;2023-03-26T00:57:00;983;;;6.7;86.9
12722;BME280;6425;50.316;8.114;2023-03-26T01:00:00;983;;;6.8;86.6
12722;BME280;6425;50.316;8.114;2023-03-26T01:03:00;983;;;6.9;86.2
12722;BME280;6425;50.316;8.114;2023-03-26T01:06:00;983;;;6.8;86.7
12722;BME280;6425;50.316;8.114;2023-03-26T01:09:01;983;;;6.8;86.5
12722;BME280;6425;50.316;8.114;2023-03-26T01:12:00;983;;;6.8;87
12722;BME280;6425;50.316;8.114;2023-03-26T01:15:00;983;;;6.8;87
12722;BME280;6425;50.316;8.114;2023-03-26T01:18:00;983;;;6.8;86.9
12722;BME280;6425;50.316;8.114;2023-03-26T01:21:00;983;;;6.8;86.5
12722;BME280;6425;50.316;8.114;2023-03-26T01:24:00;983;;;6.8;86.8
12722;BME280;6425;50.316;8.114;2023-03-26T01:27:03;982;;;6.9;86.1
12722;BME280;6425;50.316;8.114;2023-03-26T01:30:01;982;;;6.9;85.8
12722;BME280;6425;50.316;8.114;2023-03-26T01:33:00;982;;;7;85.7
12722;BME280;6425;50.316;8.114;2023-03-26T01:36:01;982;;;6.9;86.2
12722;BME280;6425;50.316;8.114;2023-03-26T01:39:01;982;;;7;85.6
12722;BME280;6425;50.316;8.114;2023-03-26T01:42:01;982;;;7;86
12722;BME280;6425;50.316;8.114;2023-03-26T01:45:03;982;;;7;86
12722;BME280;6425;50.316;8.114;2023-03-26T01:48:00;982;;;6.9;86.6
12722;BME280;6425;50.316;8.114;2023-03-26T01:51:00;982;;;6.8;86.8
12722;BME280;6425;50.316;8.114;2023-03-26T01:54:00;982;;;6.8;86.8
12722;BME280;6425;50.316;8.114;2023-03-26T01:57:02;982;;;6.7;86.9
12722;BME280;6425;50.316;8.114;2023-03-26T02:00:02;982;;;6.8;86.9
12722;BME280;6425;50.316;8.114;2023-03-26T02:03:03;982;;;6.7;87.2
12722;BME280;6425;50.316;8.114;2023-03-26T02:06:01;982;;;6.7;87.2
12722;BME280;6425;50.316;8.114;2023-03-26T02:09:00;982;;;6.8;87
12722;BME280;6425;50.316;8.114;2023-03-26T02:12:00;982;;;6.9;86.7
12722;BME280;6425;50.316;8.114;2023-03-26T02:15:00;982;;;7;86.1
12722;BME280;6425;50.316;8.114;2023-03-26T02:18:00;982;;;7.2;85
12722;BME280;6425;50.316;8.114;2023-03-26T02:21:00;982;;;7;85
12722;BME280;6425;50.316;8.114;2023-03-26T02:24:00;982;;;7.1;85.1
12722;BME280;6425;50.316;8.114;2023-03-26T02:27:00;982;;;7.1;84.6
12722;BME280;6425;50.316;8.114;2023-03-26T02:30:00;982;;;7.2;84.3
12722;BME280;6425;50.316;8.114;2023-03-26T02:33:00;982;;;7.2;84.2
12722;BME280;6425;50.316;8.114;2023-03-26T02:36:00;982;;;7.2;83.9
12722;BME280;6425;50.316;8.114;2023-03-26T02:39:00;982;;;7;83.9
12722;BME280;6425;50.316;8.114;2023-03-26T02:42:00;982;;;6.8;85.2
12722;BME280;6425;50.316;8.114;2023-03-26T02:45:00;982;;;6.9;85.2
12722;BME280;6425;50.316;8.114;2023-03-26T02:48:00;982;;;7;84.8
12722;BME280;6425;50.316;8.114;2023-03-26T02:51:00;982;;;7.2;83.8
12722;BME280;6425;50.316;8.114;2023-03-26T02:54:00;982;;;7.2;83.6
12722;BME280;6425;50.316;8.114;2023-03-26T02:57:00;982;;;7.1;84.1
12722;BME280;6425;50.316;8.114;2023-03-26T03:00:00;982;;;7.1;84.2
12722;BME280;6425;50.316;8.114;2023-03-26T03:03:00;982;;;7.2;84
12722;BME280;6425;50.316;8.114;2023-03-26T03:06:00;981;;;7.2;84.1
12722;BME280;6425;50.316;8.114;2023-03-26T03:09:00;981;;;7.2;83.8
12722;BME280;6425;50.316;8.114;2023-03-26T03:12:00;981;;;7.4;82.9
12722;BME280;6425;50.316;8.114;2023-03-26T03:15:00;981;;;7.6;81.7
12722;BME280;6425;50.316;8.114;2023-03-26T03:18:00;981;;;7.6;81.3
12722;BME280;6425;50.316;8.114;2023-03-26T03:21:00;981;;;7.6;81
12722;BME280;6425;50.316;8.114;2023-03-26T03:24:00;981;;;7.6;80.7
12722;BME280;6425;50.316;8.114;2023-03-26T03:27:00;981;;;7.8;80.2
12722;BME280;6425;50.316;8.114;2023-03-26T03:30:00;981;;;7.9;79.1
12722;BME280;6425;50.316;8.114;2023-03-26T03:33:00;981;;;8.2;77.7
12722;BME280;6425;50.316;8.114;2023-03-26T03:36:00;981;;;8.3;77
12722;BME280;6425;50.316;8.114;2023-03-26T03:39:00;981;;;8.3;76.7
12722;BME280;6425;50.316;8.114;2023-03-26T03:42:00;981;;;8.4;76.7
12722;BME280;6425;50.316;8.114;2023-03-26T03:45:00;981;;;8.7;75.4
12722;BME280;6425;50.316;8.114;2023-03-26T03:48:00;981;;;8.9;74.5
12722;BME280;6425;50.316;8.114;2023-03-26T03:51:00;981;;;8.8;74.6
12722;BME280;6425;50.316;8.114;2023-03-26T03:54:00;981;;;8.7;74.9
12722;BME280;6425;50.316;8.114;2023-03-26T03:57:00;981;;;8.5;75.7
12722;BME280;6425;50.316;8.114;2023-03-26T04:00:00;981;;;8.4;76.6
12722;BME280;6425;50.316;8.114;2023-03-26T04:03:00;981;;;8.1;77.4
12722;BME280;6425;50.316;8.114;2023-03-26T04:06:00;981;;;8.2;78
12722;BME280;6425;50.316;8.114;2023-03-26T04:09:00;981;;;7.9;78.8
12722;BME280;6425;50.316;8.114;2023-03-26T04:12:00;981;;;7.9;79.9
12722;BME280;6425;50.316;8.114;2023-03-26T04:15:00;981;;;7.7;80.2
12722;BME280;6425;50.316;8.114;2023-03-26T04:18:00;981;;;7.7;81
12722;BME280;6425;50.316;8.114;2023-03-26T04:21:00;980;;;7.5;81.9
12722;BME280;6425;50.316;8.114;2023-03-26T04:24:00;981;;;7.8;82.5
12722;BME280;6425;50.316;8.114;2023-03-26T04:27:00;980;;;7.4;84.2
12722;BME280;6425;50.316;8.114;2023-03-26T04:30:00;980;;;7.7;84
12722;BME280;6425;50.316;8.114;2023-03-26T04:33:00;980;;;7.9;83.5
12722;BME280;6425;50.316;8.114;2023-03-26T04:36:00;980;;;8;82.6
12722;BME280;6425;50.316;8.114;2023-03-26T04:39:01;980;;;8.1;81.9
12722;BME280;6425;50.316;8.114;2023-03-26T04:42:00;980;;;8.3;81
12722;BME280;6425;50.316;8.114;2023-03-26T04:45:00;980;;;8.1;81.5
12722;BME280;6425;50.316;8.114;2023-03-26T04:48:00;980;;;7.9;81.8
12722;BME280;6425;50.316;8.114;2023-03-26T04:51:00;980;;;7.9;82.4
12722;BME280;6425;50.316;8.114;2023-03-26T04:54:00;980;;;7.8;82.7
12722;BME280;6425;50.316;8.114;2023-03-26T04:57:00;980;;;7.8;83.4
12722;BME280;6425;50.316;8.114;2023-03-26T05:00:00;980;;;7.8;83.1
12722;BME280;6425;50.316;8.114;2023-03-26T05:03:00;980;;;8;82.7
12722;BME280;6425;50.316;8.114;2023-03-26T05:06:00;980;;;7.9;82.3
12722;BME280;6425;50.316;8.114;2023-03-26T05:09:00;979;;;7.8;82.7
12722;BME280;6425;50.316;8.114;2023-03-26T05:12:00;979;;;7.8;82.8
12722;BME280;6425;50.316;8.114;2023-03-26T05:15:00;979;;;7.8;82.6
12722;BME280;6425;50.316;8.114;2023-03-26T05:18:00;979;;;7.8;83.2
12722;BME280;6425;50.316;8.114;2023-03-26T05:21:00;979;;;7.8;83.4
12722;BME280;6425;50.316;8.114;2023-03-26T05:24:00;979;;;7.8;83.6
12722;BME280;6425;50.316;8.114;2023-03-26T05:27:00;979;;;7.9;83.6
12722;BME280;6425;50.316;8.114;2023-03-26T05:30:00;979;;;7.9;83.5
12722;BME280;6425;50.316;8.114;2023-03-26T05:33:00;979;;;8.1;83.3
12722;BME280;6425;50.316;8.114;2023-03-26T05:36:00;979;;;8.2;82.8
12722;BME280;6425;50.316;8.114;2023-03-26T05:39:00;979;;;8.3;82.2
12722;BME280;6425;50.316;8.114;2023-03-26T05:42:00;979;;;8.4;81.7
12722;BME280;6425;50.316;8.114;2023-03-26T05:45:00;979;;;8.5;80.8
12722;BME280;6425;50.316;8.114;2023-03-26T05:48:00;979;;;9;79.4
12722;BME280;6425;50.316;8.114;2023-03-26T05:51:00;979;;;9.2;78.4
12722;BME280;6425;50.316;8.114;2023-03-26T05:54:00;979;;;8.9;79.2
12722;BME280;6425;50.316;8.114;2023-03-26T05:57:00;979;;;8.5;81.5
12722;BME280;6425;50.316;8.114;2023-03-26T06:00:00;979;;;8;83.8
12722;BME280;6425;50.316;8.114;2023-03-26T06:03:00;979;;;7.6;85.9
12722;BME280;6425;50.316;8.114;2023-03-26T06:06:00;978;;;7.6;87.5
12722;BME280;6425;50.316;8.114;2023-03-26T06:09:00;978;;;7.5;88
12722;BME280;6425;50.316;8.114;2023-03-26T06:12:00;978;;;7.7;88.6
12722;BME280;6425;50.316;8.114;2023-03-26T06:15:00;978;;;7.9;87.7
12722;BME280;6425;50.316;8.114;2023-03-26T06:18:00;978;;;8.3;86.5
12722;BME280;6425;50.316;8.114;2023-03-26T06:21:00;978;;;7.9;86
12722;BME280;6425;50.316;8.114;2023-03-26T06:24:00;978;;;7.6;89.6
12722;BME280;6425;50.316;8.114;2023-03-26T06:27:00;978;;;8;88.6
12722;BME280;6425;50.316;8.114;2023-03-26T06:30:00;978;;;7.6;88.9
12722;BME280;6425;50.316;8.114;2023-03-26T06:33:00;978;;;7.3;90.1
12722;BME280;6425;50.316;8.114;2023-03-26T06:36:00;978;;;7.5;91
12722;BME280;6425;50.316;8.114;2023-03-26T06:39:00;978;;;7.3;92.4
12722;BME280;6425;50.316;8.114;2023-03-26T06:42:00;978;;;7;93.3
12722;BME280;6425;50.316;8.114;2023-03-26T06:45:00;978;;;6.2;97.5
12722;BME280;6425;50.316;8.114;2023-03-26T06:48:00;978;;;6.1;99.8
12722;BME280;6425;50.316;8.114;2023-03-26T06:51:00;978;;;6.4;100
12722;BME280;6425;50.316;8.114;2023-03-26T06:54:00;978;;;6.9;98.3
12722;BME280;6425;50.316;8.114;2023-03-26T06:57:00;978;;;7.1;96
12722;BME280;6425;50.316;8.114;2023-03-26T07:00:00;978;;;7.2;94.1
12722;BME280;6425;50.316;8.114;2023-03-26T07:03:01;978;;;7.2;92.9
12722;BME280;6425;50.316;8.114;2023-03-26T07:06:00;978;;;7.3;92.8
12722;BME280;6425;50.316;8.114;2023-03-26T07:09:00;978;;;7.4;92.5
12722;BME280;6425;50.316;8.114;2023-03-26T07:12:00;978;;;7.2;92.1
12722;BME280;6425;50.316;8.114;2023-03-26T07:15:00;978;;;7.2;92.3
12722;BME280;6425;50.316;8.114;2023-03-26T07:18:00;978;;;7;92.5
12722;BME280;6425;50.316;8.114;2023-03-26T07:21:00;978;;;7;93.2
12722;BME280;6425;50.316;8.114;2023-03-26T07:24:00;978;;;7;93.3
12722;BME280;6425;50.316;8.114;2023-03-26T07:27:00;978;;;7;93.4
12722;BME280;6425;50.316;8.114;2023-03-26T07:30:02;978;;;7.1;93.5
12722;BME280;6425;50.316;8.114;2023-03-26T07:33:00;978;;;7.2;92.8
12722;BME280;6425;50.316;8.114;2023-03-26T07:36:02;978;;;7.2;92.3
12722;BME280;6425;50.316;8.114;2023-03-26T07:39:10;978;;;7.3;92.1
12722;BME280;6425;50.316;8.114;2023-03-26T07:42:00;978;;;7.5;91.5
12722;BME280;6425;50.316;8.114;2023-03-26T07:45:00;978;;;7.7;90.3
12722;BME280;6425;50.316;8.114;2023-03-26T07:48:00;977;;;7.8;89.2
12722;BME280;6425;50.316;8.114;2023-03-26T07:51:00;978;;;7.8;89.3
12722;BME280;6425;50.316;8.114;2023-03-26T07:54:00;978;;;7.8;88.9
12722;BME280;6425;50.316;8.114;2023-03-26T07:57:00;977;;;7.7;88.3
12722;BME280;6425;50.316;8.114;2023-03-26T08:00:00;977;;;7.8;89.2
12722;BME280;6425;50.316;8.114;2023-03-26T08:03:07;977;;;7.6;88.8
12722;BME280;6425;50.316;8.114;2023-03-26T08:06:02;977;;;7.6;88.8
12722;BME280;6425;50.316;8.114;2023-03-26T08:09:02;977;;;7.6;88.8
12722;BME280;6425;50.316;8.114;2023-03-26T08:12:02;977;;;7.6;88.8
12722;BME280;6425;50.316;8.114;2023-03-26T08:15:01;977;;;7.6;88.8
12722;BME280;6425;50.316;8.114;2023-03-26T08:18:01;977;;;7.6;88.8
12722;BME280;6425;50.316;8.114;2023-03-26T08:21:01;977;;;7.6;88.8
12722;BME280;6425;50.316;8.114;2023-03-26T08:24:00;977;;;7.6;88.8
12722;BME280;6425;50.316;8.114;2023-03-26T08:27:01;977;;;7.6;88.8
12722;BME280;6425;50.316;8.114;2023-03-26T08:30:01;977;;;7.6;88.8
12722;BME280;6425;50.316;8.114;2023-03-26T08:33:02;977;;;7.6;88.8
12722;BME280;6425;50.316;8.114;2023-03-26T08:36:00;977;;;7.6;88.8
12722;BME280;6425;50.316;8.114;2023-03-26T08:39:00;977;;;7.6;88.8
12722;BME280;6425;50.316;8.114;2023-03-26T08:42:07;977;;;7.6;88.8
12722;BME280;6425;50.316;8.114;2023-03-26T08:45:06;977;;;8.3;85
12722;BME280;6425;50.316;8.114;2023-03-26T08:48:09;977;;;8.6;84.5
12722;BME280;6425;50.316;8.114;2023-03-26T08:51:19;977;;;8.4;84.7
12722;BME280;6425;50.316;8.114;2023-03-26T08:54:05;977;;;8.3;84.4
12722;BME280;6425;50.316;8.114;2023-03-26T08:57:03;977;;;8.1;84.4
12722;BME280;6425;50.316;8.114;2023-03-26T09:00:02;977;;;8;85.5
12722;BME280;6425;50.316;8.114;2023-03-26T09:03:11;977;;;8.2;85.2
12722;BME280;6425;50.316;8.114;2023-03-26T09:06:08;977;;;8.1;85
12722;BME280;6425;50.316;8.114;2023-03-26T09:12:04;977;;;8;85
12722;BME280;6425;50.316;8.114;2023-03-26T09:18:02;977;;;8;85
12722;BME280;6425;50.316;8.114;2023-03-26T09:21:19;977;;;8;85
12722;BME280;6425;50.316;8.114;2023-03-26T09:24:08;977;;;8;85
12722;BME280;6425;50.316;8.114;2023-03-26T09:27:06;977;;;7.6;87.3
12722;BME280;6425;50.316;8.114;2023-03-26T09:30:09;977;;;7.6;87.3
12722;BME280;6425;50.316;8.114;2023-03-26T09:33:11;977;;;7.6;87.3
12722;BME280;6425;50.316;8.114;2023-03-26T09:36:05;976;;;7.5;87.5
12722;BME280;6425;50.316;8.114;2023-03-26T09:39:02;976;;;7.4;87.1
12722;BME280;6425;50.316;8.114;2023-03-26T09:42:02;976;;;7.4;87.1
12722;BME280;6425;50.316;8.114;2023-03-26T09:45:13;976;;;7.4;87.1
12722;BME280;6425;50.316;8.114;2023-03-26T09:51:04;976;;;9.1;81.2
12722;BME280;6425;50.316;8.114;2023-03-26T09:54:04;976;;;9.1;79.6
12722;BME280;6425;50.316;8.114;2023-03-26T09:57:01;976;;;9.5;80
12722;BME280;6425;50.316;8.114;2023-03-26T10:00:06;976;;;9.7;78.6
12722;BME280;6425;50.316;8.114;2023-03-26T10:03:06;976;;;9.3;77.9
12722;BME280;6425;50.316;8.114;2023-03-26T10:06:03;976;;;9.3;78.9
12722;BME280;6425;50.316;8.114;2023-03-26T10:09:06;976;;;9.3;78.6
12722;BME280;6425;50.316;8.114;2023-03-26T10:12:03;976;;;9.7;77.6
12722;BME280;6425;50.316;8.114;2023-03-26T10:15:02;976;;;9.5;78.6
12722;BME280;6425;50.316;8.114;2023-03-26T10:18:03;976;;;9.8;78.7
12722;BME280;6425;50.316;8.114;2023-03-26T10:21:00;976;;;9.3;79.9
12722;BME280;6425;50.316;8.114;2023-03-26T10:24:06;976;;;9;81.8
12722;BME280;6425;50.316;8.114;2023-03-26T10:27:01;976;;;8.8;83
12722;BME280;6425;50.316;8.114;2023-03-26T10:30:02;976;;;9;83
12722;BME280;6425;50.316;8.114;2023-03-26T10:33:02;976;;;8.9;83.3
12722;BME280;6425;50.316;8.114;2023-03-26T10:36:04;976;;;9;81.4
12722;BME280;6425;50.316;8.114;2023-03-26T10:39:02;976;;;8.8;82.8
12722;BME280;6425;50.316;8.114;2023-03-26T10:42:04;976;;;8.2;84.7
12722;BME280;6425;50.316;8.114;2023-03-26T10:45:07;976;;;7.8;87.3
12722;BME280;6425;50.316;8.114;2023-03-26T10:48:07;976;;;8;88.7
12722;BME280;6425;50.316;8.114;2023-03-26T10:51:07;976;;;8;89.6
12722;BME280;6425;50.316;8.114;2023-03-26T10:54:01;976;;;8.1;90.1
12722;BME280;6425;50.316;8.114;2023-03-26T10:57:01;976;;;8.4;90.1
12722;BME280;6425;50.316;8.114;2023-03-26T11:00:04;976;;;8.1;89.9
12722;BME280;6425;50.316;8.114;2023-03-26T11:03:07;976;;;8;90.3
12722;BME280;6425;50.316;8.114;2023-03-26T11:06:02;976;;;8.4;89.8
12722;BME280;6425;50.316;8.114;2023-03-26T11:09:02;975;;;9;90.7
12722;BME280;6425;50.316;8.114;2023-03-26T11:12:00;976;;;9.6;86.6
12722;BME280;6425;50.316;8.114;2023-03-26T11:15:04;975;;;9.3;86.4
12722;BME280;6425;50.316;8.114;2023-03-26T11:18:02;975;;;8.9;87.9
12722;BME280;6425;50.316;8.114;2023-03-26T11:21:00;975;;;8.9;87.1
12722;BME280;6425;50.316;8.114;2023-03-26T11:24:04;975;;;9.3;86
12722;BME280;6425;50.316;8.114;2023-03-26T11:27:00;975;;;9.7;85.1
12722;BME280;6425;50.316;8.114;2023-03-26T11:30:02;975;;;9.7;83.7
12722;BME280;6425;50.316;8.114;2023-03-26T11:33:00;975;;;9.9;81.8
12722;BME280;6425;50.316;8.114;2023-03-26T11:36:00;975;;;9.6;82.2
12722;BME280;6425;50.316;8.114;2023-03-26T11:39:00;975;;;9.6;81.9
12722;BME280;6425;50.316;8.114;2023-03-26T11:42:01;975;;;9.6;80.8
12722;BME280;6425;50.316;8.114;2023-03-26T11:45:01;975;;;9.2;83.8
12722;BME280;6425;50.316;8.114;2023-03-26T11:48:00;975;;;9;84.4
12722;BME280;6425;50.316;8.114;2023-03-26T11:51:01;975;;;8.7;86.5
12722;BME280;6425;50.316;8.114;2023-03-26T11:54:00;975;;;8.6;86.4
12722;BME280;6425;50.316;8.114;2023-03-26T11:57:00;975;;;8.6;86.1
12722;BME280;6425;50.316;8.114;2023-03-26T12:00:00;975;;;8.9;86
12722;BME280;6425;50.316;8.114;2023-03-26T12:03:00;975;;;9.1;85.5
12722;BME280;6425;50.316;8.114;2023-03-26T12:06:00;975;;;8.7;84.8
12722;BME280;6425;50.316;8.114;2023-03-26T12:09:00;975;;;8.7;85.6
12722;BME280;6425;50.316;8.114;2023-03-26T12:12:01;975;;;9.1;87.7
12722;BME280;6425;50.316;8.114;2023-03-26T12:15:00;975;;;9.3;88.3
12722;BME280;6425;50.316;8.114;2023-03-26T12:18:16;975;;;9;86.9
12722;BME280;6425;50.316;8.114;2023-03-26T12:21:01;975;;;8.6;89.3
12722;BME280;6425;50.316;8.114;2023-03-26T12:24:00;975;;;8.7;88.9
12722;BME280;6425;50.316;8.114;2023-03-26T12:27:00;975;;;8.8;90.5
12722;BME280;6425;50.316;8.114;2023-03-26T12:30:08;975;;;9.1;90.9
12722;BME280;6425;50.316;8.114;2023-03-26T12:33:00;975;;;8.9;87.7
12722;BME280;6425;50.316;8.114;2023-03-26T12:36:14;975;;;8.9;85.9
12722;BME280;6425;50.316;8.114;2023-03-26T12:39:00;975;;;8.9;84.7
12722;BME280;6425;50.316;8.114;2023-03-26T12:42:00;975;;;8.9;85.7
12722;BME280;6425;50.316;8.114;2023-03-26T12:45:00;975;;;9.1;84.5
12722;BME280;6425;50.316;8.114;2023-03-26T12:48:00;975;;;9.3;82.6
12722;BME280;6425;50.316;8.114;2023-03-26T12:51:03;975;;;9.6;82
12722;BME280;6425;50.316;8.114;2023-03-26T12:54:03;975;;;9.8;81.3
12722;BME280;6425;50.316;8.114;2023-03-26T12:57:04;975;;;10;79.8
12722;BME280;6425;50.316;8.114;2023-03-26T13:00:04;974;;;10;73.3
12722;BME280;6425;50.316;8.114;2023-03-26T13:03:05;974;;;10;74.1
12722;BME280;6425;50.316;8.114;2023-03-26T13:06:04;974;;;10.1;73.1
12722;BME280;6425;50.316;8.114;2023-03-26T13:09:05;974;;;10.2;73.5
12722;BME280;6425;50.316;8.114;2023-03-26T13:12:03;974;;;10.4;71.8
12722;BME280;6425;50.316;8.114;2023-03-26T13:15:10;974;;;10.4;72.7
12722;BME280;6425;50.316;8.114;2023-03-26T13:18:04;974;;;10.3;70.1
12722;BME280;6425;50.316;8.114;2023-03-26T13:21:01;974;;;10.2;69.8
12722;BME280;6425;50.316;8.114;2023-03-26T13:24:01;974;;;10.3;69.9
12722;BME280;6425;50.316;8.114;2023-03-26T13:27:04;974;;;10.3;70.1
12722;BME280;6425;50.316;8.114;2023-03-26T13:30:02;974;;;10.7;71.8
12722;BME280;6425;50.316;8.114;2023-03-26T13:33:04;974;;;10.2;69.2
12722;BME280;6425;50.316;8.114;2023-03-26T13:36:01;974;;;10.4;72.5
12722;BME280;6425;50.316;8.114;2023-03-26T13:39:04;974;;;10.2;69
12722;BME280;6425;50.316;8.114;2023-03-26T13:42:04;974;;;10;69.1
12722;BME280;6425;50.316;8.114;2023-03-26T13:45:00;974;;;9.7;72.2
12722;BME280;6425;50.316;8.114;2023-03-26T13:48:00;974;;;9.2;75.1
12722;BME280;6425;50.316;8.114;2023-03-26T13:51:01;974;;;8.6;81.1
12722;BME280;6425;50.316;8.114;2023-03-26T13:54:01;974;;;8.8;81.8
12722;BME280;6425;50.316;8.114;2023-03-26T13:57:01;974;;;9.1;81.5
12722;BME280;6425;50.316;8.114;2023-03-26T14:00:01;974;;;9.3;81.7
12722;BME280;6425;50.316;8.114;2023-03-26T14:03:00;974;;;9.4;81.5
12722;BME280;6425;50.316;8.114;2023-03-26T14:06:02;974;;;9.8;81
12722;BME280;6425;50.316;8.114;2023-03-26T14:09:02;974;;;9.9;80.3
12722;BME280;6425;50.316;8.114;2023-03-26T14:12:05;974;;;9.7;76.7
12722;BME280;6425;50.316;8.114;2023-03-26T14:15:01;974;;;9.7;78.5
12722;BME280;6425;50.316;8.114;2023-03-26T14:18:02;974;;;9.9;77.7
12722;BME280;6425;50.316;8.114;2023-03-26T14:21:04;974;;;9.6;79.1
12722;BME280;6425;50.316;8.114;2023-03-26T14:24:18;974;;;9.6;79.9
12722;BME280;6425;50.316;8.114;2023-03-26T14:27:12;974;;;9.6;79.9
12722;BME280;6425;50.316;8.114;2023-03-26T14:30:38;974;;;9.5;80
12722;BME280;6425;50.316;8.114;2023-03-26T14:33:04;974;;;9.4;77.6
12722;BME280;6425;50.316;8.114;2023-03-26T14:36:01;974;;;9.7;75.7
12722;BME280;6425;50.316;8.114;2023-03-26T14:39:11;974;;;9.7;74.7
12722;BME280;6425;50.316;8.114;2023-03-26T14:42:00;974;;;9.5;73.9
12722;BME280;6425;50.316;8.114;2023-03-26T14:46:06;974;;;9.4;74.5
12722;BME280;6425;50.316;8.114;2023-03-26T14:48:04;974;;;9.3;78.1
12722;BME280;6425;50.316;8.114;2023-03-26T14:51:02;974;;;8;86
12722;BME280;6425;50.316;8.114;2023-03-26T14:54:01;975;;;7.5;91.7
12722;BME280;6425;50.316;8.114;2023-03-26T14:57:16;975;;;7.4;95.2
12722;BME280;6425;50.316;8.114;2023-03-26T15:00:19;975;;;7.6;93
12722;BME280;6425;50.316;8.114;2023-03-26T15:03:38;975;;;7.6;92.1
12722;BME280;6425;50.316;8.114;2023-03-26T15:06:03;975;;;7.5;91.1
12722;BME280;6425;50.316;8.114;2023-03-26T15:09:10;975;;;7.2;90.9
12722;BME280;6425;50.316;8.114;2023-03-26T15:12:00;975;;;6.9;93.3
12722;BME280;6425;50.316;8.114;2023-03-26T15:15:22;975;;;6.8;95.3
12722;BME280;6425;50.316;8.114;2023-03-26T15:18:05;975;;;6.7;97
12722;BME280;6425;50.316;8.114;2023-03-26T15:21:14;975;;;6.6;99.4
12722;BME280;6425;50.316;8.114;2023-03-26T15:24:36;975;;;6.6;100
12722;BME280;6425;50.316;8.114;2023-03-26T15:30:03;975;;;6.4;100
12722;BME280;6425;50.316;8.114;2023-03-26T15:33:06;975;;;6.4;100
12722;BME280;6425;50.316;8.114;2023-03-26T15:36:04;975;;;6.5;100
12722;BME280;6425;50.316;8.114;2023-03-26T15:39:08;975;;;6.6;100
12722;BME280;6425;50.316;8.114;2023-03-26T15:42:01;975;;;6.7;99.8
12722;BME280;6425;50.316;8.114;2023-03-26T15:45:08;975;;;6.8;98.1
12722;BME280;6425;50.316;8.114;2023-03-26T15:48:12;975;;;6.6;96.1
12722;BME280;6425;50.316;8.114;2023-03-26T15:51:07;975;;;6.8;96.1
12722;BME280;6425;50.316;8.114;2023-03-26T15:54:02;975;;;7;94.8
12722;BME280;6425;50.316;8.114;2023-03-26T15:57:05;975;;;6.9;95.3
12722;BME280;6425;50.316;8.114;2023-03-26T16:00:02;975;;;7;95.7
12722;BME280;6425;50.316;8.114;2023-03-26T16:03:06;975;;;7.1;95.2
12722;BME280;6425;50.316;8.114;2023-03-26T16:06:06;975;;;6.8;94.8
12722;BME280;6425;50.316;8.114;2023-03-26T16:09:03;975;;;6.7;96
12722;BME280;6425;50.316;8.114;2023-03-26T16:12:02;975;;;6.7;96.8
12722;BME280;6425;50.316;8.114;2023-03-26T16:15:31;975;;;6.7;97.6
12722;BME280;6425;50.316;8.114;2023-03-26T16:18:05;975;;;6.8;98.4
12722;BME280;6425;50.316;8.114;2023-03-26T16:21:01;975;;;6.8;98.5
12722;BME280;6425;50.316;8.114;2023-03-26T16:24:32;975;;;6.8;98.2
12722;BME280;6425;50.316;8.114;2023-03-26T16:27:01;975;;;6.8;98.4
12722;BME280;6425;50.316;8.114;2023-03-26T16:30:01;975;;;6.7;99.2
12722;BME280;6425;50.316;8.114;2023-03-26T16:33:08;975;;;6.7;100
12722;BME280;6425;50.316;8.114;2023-03-26T16:36:02;975;;;6.6;100
12722;BME280;6425;50.316;8.114;2023-03-26T16:42:00;975;;;6.7;100
12722;BME280;6425;50.316;8.114;2023-03-26T16:45:04;975;;;6.7;100
12722;BME280;6425;50.316;8.114;2023-03-26T16:48:01;975;;;6.6;100
12722;BME280;6425;50.316;8.114;2023-03-26T16:51:02;975;;;6.6;100
12722;BME280;6425;50.316;8.114;2023-03-26T16:54:02;976;;;6.6;100
12722;BME280;6425;50.316;8.114;2023-03-26T16:57:03;975;;;6.6;100
12722;BME280;6425;50.316;8.114;2023-03-26T17:00:04;976;;;6.7;100
12722;BME280;6425;50.316;8.114;2023-03-26T17:03:04;976;;;6.7;100
12722;BME280;6425;50.316;8.114;2023-03-26T17:06:02;976;;;6.5;100
12722;BME280;6425;50.316;8.114;2023-03-26T17:09:01;976;;;6.5;100
12722;BME280;6425;50.316;8.114;2023-03-26T17:12:02;976;;;6.5;100
12722;BME280;6425;50.316;8.114;2023-03-26T17:15:02;976;;;6.4;100
12722;BME280;6425;50.316;8.114;2023-03-26T17:18:01;976;;;6.5;100
12722;BME280;6425;50.316;8.114;2023-03-26T17:21:01;976;;;6.5;100
12722;BME280;6425;50.316;8.114;2023-03-26T17:24:02;976;;;6.5;100
12722;BME280;6425;50.316;8.114;2023-03-26T17:27:00;976;;;6.3;100
12722;BME280;6425;50.316;8.114;2023-03-26T17:30:00;976;;;6.3;100
12722;BME280;6425;50.316;8.114;2023-03-26T17:33:05;976;;;6.3;100
12722;BME280;6425;50.316;8.114;2023-03-26T17:37:08;976;;;6.4;100
12722;BME280;6425;50.316;8.114;2023-03-26T17:39:02;976;;;6.4;100
12722;BME280;6425;50.316;8.114;2023-03-26T17:42:09;976;;;6.4;100
12722;BME280;6425;50.316;8.114;2023-03-26T17:45:00;976;;;6.3;100
12722;BME280;6425;50.316;8.114;2023-03-26T17:48:00;976;;;6.3;100
12722;BME280;6425;50.316;8.114;2023-03-26T17:51:00;976;;;6.3;100
12722;BME280;6425;50.316;8.114;2023-03-26T17:54:00;976;;;6.3;100
12722;BME280;6425;50.316;8.114;2023-03-26T17:57:01;976;;;6.3;100
12722;BME280;6425;50.316;8.114;2023-03-26T18:00:00;976;;;6.4;100
12722;BME280;6425;50.316;8.114;2023-03-26T18:03:00;976;;;6.3;100
12722;BME280;6425;50.316;8.114;2023-03-26T18:06:03;976;;;6.3;100
12722;BME280;6425;50.316;8.114;2023-03-26T18:09:03;976;;;6.3;100
12722;BME280;6425;50.316;8.114;2023-03-26T18:12:03;976;;;6.4;100
12722;BME280;6425;50.316;8.114;2023-03-26T18:15:05;976;;;6.5;100
12722;BME280;6425;50.316;8.114;2023-03-26T18:18:01;976;;;6.6;100
12722;BME280;6425;50.316;8.114;2023-03-26T18:21:00;976;;;6.6;100
12722;BME280;6425;50.316;8.114;2023-03-26T18:24:00;976;;;6.5;100
12722;BME280;6425;50.316;8.114;2023-03-26T18:27:00;976;;;6.5;100